Terminal Aerodrome Forecast
Issued by NWS

Home | Current Version | Previous Version | Text Only | Print | Product List | Glossary On
Versions: 1 2 3 4 5 6 7 8 9 10 11 12 13 14 15 16 17 18 19 20
000
FTUS41 KGYX 250849 AAA
TAFAUG
TAF AMD
KAUG 250849Z 2509/2606 24005KT P6SM BKN200
     FM251600 23009G16KT P6SM SCT050 BKN200
     FM252300 19006KT P6SM -SHRA OVC050
     FM260300 18005KT 4SM -SHRA BR OVC015=

USA.gov is the U.S. government's official web portal to all federal, state and local government web resources and services.